Time;durP1;ratioP1;P1;durP2;ratioP2;P2;SDS_P1;SDS_P2;PMS_P1;PMS_P2;Temp;Humidity;BMP_temperature;BMP_pressure;BME280_temperature;BME280_humidity;BME280_pressure;Samples;Min_cycle;Max_cycle;Signal;HPM_P1;HPM_P2
2023/10/07 00:01:52;;;;;;;;;;;;;;;15.09;100.00;98684.28;5113697;28;19924;-71
2023/10/07 00:04:19;;;;;;;;;;;;;;;15.05;100.00;98677.84;5116627;28;19943;-71
2023/10/07 00:06:46;;;;;;;;;;;;;;;15.04;100.00;98684.28;5118445;28;19928;-71
2023/10/07 00:09:15;;;;;;;;;;;;;;;15.03;100.00;98680.00;5118177;28;19924;-71
2023/10/07 00:11:46;;;;;;;;;;;;;;;15.02;100.00;98682.94;5118528;28;19924;-71
2023/10/07 00:14:14;;;;;;;;;;;;;;;14.99;100.00;98680.81;5112902;28;19950;-71
2023/10/07 00:16:45;;;;;;;;;;;;;;;14.95;100.00;98687.78;5114804;28;19979;-71
2023/10/07 00:19:13;;;;;;;;;;;;;;;14.96;100.00;98687.53;5116136;28;19924;-71
2023/10/07 00:21:59;;;;;;;;;;;;;;;14.94;100.00;98687.03;5108588;28;20018;-71
2023/10/07 00:24:26;;;;;;;;;;;;;;;14.93;100.00;98689.97;5121503;28;19946;-71
2023/10/07 00:26:53;;;;;;;;;;;;;;;14.89;100.00;98673.56;5113397;28;19924;-70
2023/10/07 00:29:21;;;;;;;;;;;;;;;14.90;100.00;98682.44;5116201;28;19959;-70
2023/10/07 00:31:52;;;;;;;;;;;;;;;14.87;100.00;98678.41;5118349;28;19924;-70
2023/10/07 00:34:22;;;;;;;;;;;;;;;14.85;100.00;98685.97;5118508;28;19924;-70
2023/10/07 00:36:49;;;;;;;;;;;;;;;14.83;100.00;98674.66;5118646;28;19958;-71
2023/10/07 00:39:21;;;;;;;;;;;;;;;14.83;100.00;98685.41;5116897;28;19924;-70
2023/10/07 00:41:50;;;;;;;;;;;;;;;14.82;100.00;98680.31;5114726;28;20311;-70
2023/10/07 00:44:22;;;;;;;;;;;;;;;14.79;100.00;98684.31;5115505;28;19924;-71
2023/10/07 00:47:12;;;;;;;;;;;;;;;14.80;100.00;98683.25;5127034;28;19923;-70
2023/10/07 00:49:40;;;;;;;;;;;;;;;14.77;100.00;98688.38;5118198;28;20026;-72
2023/10/07 00:52:11;;;;;;;;;;;;;;;14.78;100.00;98687.31;5115463;28;19951;-71
2023/10/07 00:54:49;;;;;;;;;;;;;;;14.78;100.00;98681.91;5126573;28;19920;-70
2023/10/07 00:57:24;;;;;;;;;;;;;;;14.74;100.00;98681.66;5115866;28;19970;-70
2023/10/07 00:59:51;;;;;;;;;;;;;;;14.72;100.00;98689.19;5119298;28;19942;-70
2023/10/07 01:02:29;;;;;;;;;;;;;;;14.73;100.00;98680.03;5125690;28;19924;-70
2023/10/07 01:05:00;;;;;;;;;;;;;;;14.69;100.00;98686.22;5121057;28;19986;-71
2023/10/07 01:07:26;;;;;;;;;;;;;;;14.68;100.00;98677.34;5115355;28;19923;-71
2023/10/07 01:10:05;;;;;;;;;;;;;;;14.65;100.00;98674.41;5118451;28;19946;-71
2023/10/07 01:12:36;;;;;;;;;;;;;;;14.66;100.00;98684.91;5118395;28;19924;-71
2023/10/07 01:15:13;;;;;;;;;;;;;;;14.62;100.00;98675.75;5118578;28;20385;-71
2023/10/07 01:17:42;;;;;;;;;;;;;;;14.61;100.00;98674.13;5115786;28;19924;-71
2023/10/07 01:20:09;;;;;;;;;;;;;;;14.62;100.00;98675.75;5118964;28;19955;-71
2023/10/07 01:22:37;;;;;;;;;;;;;;;14.61;100.00;98671.44;5125908;28;19924;-71
2023/10/07 01:25:09;;;;;;;;;;;;;;;14.59;100.00;98670.91;5125970;28;19962;-71
2023/10/07 01:27:45;;;;;;;;;;;;;;;14.58;100.00;98666.59;5122272;28;19924;-71
2023/10/07 01:30:16;;;;;;;;;;;;;;;14.56;100.00;98663.41;5119567;28;19931;-71
2023/10/07 01:32:49;;;;;;;;;;;;;;;14.56;100.00;98649.94;5118440;28;19924;-71
2023/10/07 01:35:25;;;;;;;;;;;;;;;14.54;100.00;98660.97;5119336;28;19925;-71
2023/10/07 01:37:59;;;;;;;;;;;;;;;14.52;100.00;98656.94;5122131;28;19996;-71
2023/10/07 01:40:31;;;;;;;;;;;;;;;14.53;100.00;98658.56;5123194;28;19924;-71
2023/10/07 01:42:57;;;;;;;;;;;;;;;14.47;100.00;98660.44;5130530;28;19924;-71
2023/10/07 01:45:34;;;;;;;;;;;;;;;14.49;100.00;98658.28;5124388;28;19923;-71
2023/10/07 01:48:07;;;;;;;;;;;;;;;14.49;100.00;98657.47;5127637;28;19928;-71
2023/10/07 01:50:37;;;;;;;;;;;;;;;14.48;100.00;98663.94;5126998;28;19959;-71
2023/10/07 01:53:05;;;;;;;;;;;;;;;14.50;100.00;98664.47;5124541;28;19946;-71
2023/10/07 01:55:35;;;;;;;;;;;;;;;14.47;100.00;98670.38;5115645;28;20591;-71
2023/10/07 01:58:01;;;;;;;;;;;;;;;14.45;100.00;98667.19;5117561;28;20463;-70
2023/10/07 02:00:43;;;;;;;;;;;;;;;14.45;100.00;98669.88;5118162;28;19924;-70
2023/10/07 02:03:13;;;;;;;;;;;;;;;14.44;100.00;98676.31;5116810;28;19924;-70
2023/10/07 02:05:40;;;;;;;;;;;;;;;14.41;100.00;98668.78;5121210;28;19924;-71
2023/10/07 02:08:11;;;;;;;;;;;;;;;14.39;100.00;98669.03;5126194;28;19951;-70
2023/10/07 02:10:38;;;;;;;;;;;;;;;14.35;100.00;98659.91;5117051;28;19928;-70
2023/10/07 02:13:04;;;;;;;;;;;;;;;14.35;100.00;98659.91;5120460;28;19931;-70
2023/10/07 02:15:36;;;;;;;;;;;;;;;14.34;100.00;98654.78;5121045;28;19939;-70
2023/10/07 02:18:04;;;;;;;;;;;;;;;14.36;100.00;98658.03;5121070;28;19924;-70
2023/10/07 02:20:38;;;;;;;;;;;;;;;14.40;100.00;98659.91;5121327;28;19927;-71
2023/10/07 02:23:11;;;;;;;;;;;;;;;14.15;100.00;98667.91;5118651;28;19923;-71
2023/10/07 02:25:40;;;;;;;;;;;;;;;14.17;100.00;98659.63;5116184;28;20046;-71
2023/10/07 02:28:07;;;;;;;;;;;;;;;14.22;100.00;98656.91;5127996;28;20578;-70
2023/10/07 02:30:38;;;;;;;;;;;;;;;14.23;100.00;98653.97;5120457;28;19931;-71
2023/10/07 02:33:08;;;;;;;;;;;;;;;14.23;100.00;98655.84;5117421;28;19935;-70
2023/10/07 02:35:36;;;;;;;;;;;;;;;14.25;100.00;98656.38;5117145;28;19924;-70
2023/10/07 02:38:04;;;;;;;;;;;;;;;14.20;100.00;98651.81;5119495;28;19924;-70
2023/10/07 02:40:36;;;;;;;;;;;;;;;14.24;100.00;98660.13;5120666;28;20391;-71
2023/10/07 02:43:07;;;;;;;;;;;;;;;14.27;100.00;98659.59;5102326;28;19970;-70
2023/10/07 02:45:39;;;;;;;;;;;;;;;14.22;100.00;98655.03;5120829;28;19927;-69
2023/10/07 02:48:10;;;;;;;;;;;;;;;14.20;100.00;98642.94;5118594;28;19927;-70
2023/10/07 02:50:39;;;;;;;;;;;;;;;14.20;100.00;98640.28;5115690;28;20034;-70
2023/10/07 02:53:11;;;;;;;;;;;;;;;14.19;100.00;98658.25;5127699;28;19928;-70
2023/10/07 02:55:47;;;;;;;;;;;;;;;14.16;100.00;98658.78;5130775;28;19936;-70
2023/10/07 02:58:24;;;;;;;;;;;;;;;14.17;100.00;98667.66;5118093;28;19995;-70
2023/10/07 03:00:51;;;;;;;;;;;;;;;14.15;100.00;98667.91;5116647;28;19934;-70
2023/10/07 03:03:32;;;;;;;;;;;;;;;14.15;100.00;98667.91;5117055;28;19924;-70
2023/10/07 03:06:00;;;;;;;;;;;;;;;14.15;100.00;98667.91;5115546;28;19977;-70
2023/10/07 03:08:40;;;;;;;;;;;;;;;14.18;100.00;98662.00;5120558;28;19956;-70
2023/10/07 03:11:11;;;;;;;;;;;;;;;14.16;100.00;98669.53;5117770;28;19923;-71
2023/10/07 03:13:39;;;;;;;;;;;;;;;14.14;100.00;98677.06;5116717;28;19970;-70
2023/10/07 03:16:27;;;;;;;;;;;;;;;14.12;100.00;98673.00;5120042;28;19928;-70
2023/10/07 03:19:05;;;;;;;;;;;;;;;14.08;100.00;98672.75;5120263;28;19935;-71
2023/10/07 03:21:54;;;;;;;;;;;;;;;14.08;100.00;98681.59;5120297;28;19950;-70
2023/10/07 03:24:29;;;;;;;;;;;;;;;14.07;100.00;98682.69;5120268;28;19924;-71
2023/10/07 03:27:05;;;;;;;;;;;;;;;13.84;100.00;98691.22;5120156;28;19935;-71
2023/10/07 03:29:36;;;;;;;;;;;;;;;13.68;100.00;98688.78;5120439;28;19945;-71
2023/10/07 03:32:07;;;;;;;;;;;;;;;13.79;100.00;98685.84;5120411;28;19947;-70
2023/10/07 03:34:36;;;;;;;;;;;;;;;13.85;100.00;98674.06;5119804;28;19992;-70
2023/10/07 03:37:15;;;;;;;;;;;;;;;13.91;100.00;98674.88;5119646;28;19928;-70
2023/10/07 03:39:56;;;;;;;;;;;;;;;13.92;100.00;98673.81;5119580;28;19928;-70
2023/10/07 03:42:23;;;;;;;;;;;;;;;13.86;100.00;98677.56;5118113;28;19988;-70
2023/10/07 03:44:50;;;;;;;;;;;;;;;13.76;100.00;98664.91;5120868;28;19991;-70
2023/10/07 03:47:17;;;;;;;;;;;;;;;13.56;100.00;98661.34;5119666;28;20378;-70
2023/10/07 03:49:52;;;;;;;;;;;;;;;13.33;100.00;98657.25;5101267;28;19924;-71
2023/10/07 03:52:20;;;;;;;;;;;;;;;13.20;100.00;98668.47;5117821;28;19928;-71
2023/10/07 03:54:47;;;;;;;;;;;;;;;13.36;100.00;98670.97;5125447;28;19924;-71
2023/10/07 03:57:15;;;;;;;;;;;;;;;13.47;100.00;98679.84;5114526;28;19931;-71
2023/10/07 03:59:42;;;;;;;;;;;;;;;13.41;100.00;98665.59;5119163;28;19971;-71
2023/10/07 04:04:59;;;;;;;;;;;;;;;13.34;100.00;98662.34;5122388;28;20019;-70
2023/10/07 04:07:26;;;;;;;;;;;;;;;13.41;100.00;98656.75;5116371;28;19930;-70
2023/10/07 04:09:53;;;;;;;;;;;;;;;13.46;100.00;98654.09;5101213;28;19924;-70
2023/10/07 04:12:22;;;;;;;;;;;;;;;13.57;100.00;98661.09;5119347;28;19924;-70
2023/10/07 04:14:55;;;;;;;;;;;;;;;13.59;100.00;98664.31;5118971;28;19962;-71
2023/10/07 04:17:23;;;;;;;;;;;;;;;13.64;100.00;98672.41;5117471;28;19953;-70
2023/10/07 04:19:53;;;;;;;;;;;;;;;13.71;100.00;98661.41;5114992;28;19924;-70
2023/10/07 04:22:20;;;;;;;;;;;;;;;13.62;100.00;98665.66;5115165;28;19924;-70
2023/10/07 04:24:46;;;;;;;;;;;;;;;13.60;100.00;98675.84;5118465;28;19963;-71
2023/10/07 04:27:18;;;;;;;;;;;;;;;13.63;100.00;98675.34;5119000;28;19934;-71
2023/10/07 04:29:45;;;;;;;;;;;;;;;13.65;100.00;98674.00;5121541;28;19924;-71
2023/10/07 04:32:19;;;;;;;;;;;;;;;13.65;100.00;98668.63;5118198;28;20027;-70
2023/10/07 04:35:01;;;;;;;;;;;;;;;13.66;100.00;98672.94;5118547;28;19928;-71
2023/10/07 04:37:38;;;;;;;;;;;;;;;13.66;100.00;98670.25;5118726;28;19924;-70
2023/10/07 04:43:00;;;;;;;;;;;;;;;13.62;100.00;98685.25;5121501;28;19946;-70
2023/10/07 04:45:36;;;;;;;;;;;;;;;13.57;100.00;98687.94;5118200;28;19935;-71
2023/10/07 04:48:23;;;;;;;;;;;;;;;13.62;100.00;98673.72;5110938;28;19932;-71
2023/10/07 04:51:03;;;;;;;;;;;;;;;13.59;100.00;98658.94;5118335;28;19923;-70
2023/10/07 04:53:37;;;;;;;;;;;;;;;13.57;100.00;98671.03;5121325;28;19924;-70
2023/10/07 04:56:03;;;;;;;;;;;;;;;13.56;100.00;98675.56;5116198;28;19931;-70
2023/10/07 04:58:30;;;;;;;;;;;;;;;13.55;100.00;98679.34;5096768;28;19924;-70
2023/10/07 05:01:04;;;;;;;;;;;;;;;13.25;100.00;98687.25;5111433;28;19924;-70
2023/10/07 05:03:31;;;;;;;;;;;;;;;13.28;100.00;98700.94;5114017;28;19928;-70
2023/10/07 05:05:58;;;;;;;;;;;;;;;13.25;100.00;98695.28;5117709;28;19924;-70
2023/10/07 05:08:27;;;;;;;;;;;;;;;13.28;100.00;98692.09;5118071;28;19946;-70
2023/10/07 05:10:53;;;;;;;;;;;;;;;13.34;100.00;98683.00;5121280;28;19935;-71
2023/10/07 05:13:20;;;;;;;;;;;;;;;13.38;100.00;98678.72;5115652;28;19931;-71
2023/10/07 05:15:46;;;;;;;;;;;;;;;13.36;100.00;98680.88;5117833;28;19932;-71
2023/10/07 05:18:13;;;;;;;;;;;;;;;13.26;100.00;98670.09;5117684;28;19924;-70
2023/10/07 05:20:41;;;;;;;;;;;;;;;13.04;100.00;98674.78;5117868;28;19942;-71
2023/10/07 05:23:13;;;;;;;;;;;;;;;13.10;100.00;98684.50;5115892;28;19963;-70
2023/10/07 05:25:48;;;;;;;;;;;;;;;13.12;100.00;98699.25;5113795;28;19921;-70
2023/10/07 05:28:17;;;;;;;;;;;;;;;13.13;100.00;98702.75;5114916;28;19991;-70
2023/10/07 05:30:50;;;;;;;;;;;;;;;13.16;100.00;98689.63;5125921;28;19924;-70
2023/10/07 05:33:16;;;;;;;;;;;;;;;13.13;100.00;98686.66;5115724;28;19924;-70
2023/10/07 05:35:43;;;;;;;;;;;;;;;13.14;100.00;98683.72;5113859;28;20010;-70
2023/10/07 05:38:11;;;;;;;;;;;;;;;13.10;100.00;98689.84;5115753;28;20511;-72
2023/10/07 05:40:37;;;;;;;;;;;;;;;12.97;100.00;98689.22;5117511;28;19924;-69
2023/10/07 05:43:06;;;;;;;;;;;;;;;12.96;100.00;98695.66;5117478;28;19928;-71
2023/10/07 05:45:33;;;;;;;;;;;;;;;13.04;100.00;98688.19;5117475;28;20677;-71
2023/10/07 05:47:59;;;;;;;;;;;;;;;13.08;100.00;98689.28;5114337;28;19924;-71
2023/10/07 05:50:27;;;;;;;;;;;;;;;13.21;100.00;98689.66;5113252;28;19924;-72
2023/10/07 05:52:54;;;;;;;;;;;;;;;13.12;100.00;98695.78;5125839;28;19946;-71
2023/10/07 05:55:22;;;;;;;;;;;;;;;13.22;100.00;98687.78;5127875;28;19923;-71
2023/10/07 05:57:51;;;;;;;;;;;;;;;13.17;100.00;98687.75;5112645;28;19928;-71
2023/10/07 06:00:18;;;;;;;;;;;;;;;13.08;100.00;98690.13;5119079;28;19924;-71
2023/10/07 06:02:44;;;;;;;;;;;;;;;13.12;100.00;98690.44;5118083;28;19931;-71
2023/10/07 06:05:11;;;;;;;;;;;;;;;12.96;100.00;98687.63;5117543;28;19991;-71
2023/10/07 06:07:39;;;;;;;;;;;;;;;12.76;100.00;98684.00;5120984;28;20053;-71
2023/10/07 06:10:06;;;;;;;;;;;;;;;12.57;100.00;98693.50;5119054;28;19928;-71
2023/10/07 06:12:34;;;;;;;;;;;;;;;12.79;100.00;98697.69;5116169;28;19928;-71
2023/10/07 06:15:00;;;;;;;;;;;;;;;12.66;100.00;98687.41;5120331;28;19944;-71
2023/10/07 06:17:27;;;;;;;;;;;;;;;12.65;100.00;98701.06;5128373;28;19923;-71
2023/10/07 06:19:54;;;;;;;;;;;;;;;12.50;100.00;98693.72;5115943;28;19939;-71
2023/10/07 06:22:23;;;;;;;;;;;;;;;12.66;100.00;98698.13;5118419;28;20366;-71
2023/10/07 06:24:52;;;;;;;;;;;;;;;12.90;100.00;98694.00;5129723;28;19927;-71
2023/10/07 06:27:21;;;;;;;;;;;;;;;13.02;100.00;98704.53;5122723;28;19950;-71
2023/10/07 06:29:51;;;;;;;;;;;;;;;12.96;100.00;98703.72;5121617;28;19923;-71
2023/10/07 06:32:23;;;;;;;;;;;;;;;12.76;100.00;98710.78;5120041;28;20434;-71
2023/10/07 06:34:51;;;;;;;;;;;;;;;12.69;100.00;98711.00;5103101;28;19946;-71
2023/10/07 06:37:20;;;;;;;;;;;;;;;12.66;100.00;98706.16;5120693;28;19999;-71
2023/10/07 06:39:48;;;;;;;;;;;;;;;12.77;100.00;98705.19;5120640;28;19924;-71
2023/10/07 06:42:17;;;;;;;;;;;;;;;12.81;100.00;98716.22;5119262;28;19924;-71
2023/10/07 06:44:44;;;;;;;;;;;;;;;12.64;100.00;98716.34;5117090;28;19924;-71
2023/10/07 06:47:12;;;;;;;;;;;;;;;12.69;100.00;98723.63;5118490;28;19924;-71
2023/10/07 06:49:39;;;;;;;;;;;;;;;12.78;100.00;98717.50;5129273;28;19950;-71
2023/10/07 06:52:06;;;;;;;;;;;;;;;12.90;100.00;98720.03;5117139;28;19928;-71
2023/10/07 06:54:33;;;;;;;;;;;;;;;12.96;100.00;98713.63;5128764;28;19943;-71
2023/10/07 06:56:59;;;;;;;;;;;;;;;12.73;100.00;98733.56;5118757;28;19924;-69
2023/10/07 06:59:28;;;;;;;;;;;;;;;12.80;100.00;98723.44;5120229;28;19983;-70
2023/10/07 07:01:55;;;;;;;;;;;;;;;12.49;100.00;98723.44;5120030;28;19942;-71
2023/10/07 07:04:23;;;;;;;;;;;;;;;12.03;100.00;98725.72;5118522;28;19924;-70
2023/10/07 07:06:58;;;;;;;;;;;;;;;12.12;100.00;98723.38;5116377;28;19939;-70
2023/10/07 07:09:50;;;;;;;;;;;;;;;12.03;100.00;98731.06;5115800;28;19987;-71
2023/10/07 07:12:17;;;;;;;;;;;;;;;12.37;100.00;98740.50;5113775;28;19924;-70
2023/10/07 07:14:50;;;;;;;;;;;;;;;12.09;100.00;98745.31;5119947;28;19962;-71
2023/10/07 07:20:29;;;;;;;;;;;;;;;10.75;100.00;98753.69;5123678;28;19927;-71
2023/10/07 07:22:58;;;;;;;;;;;;;;;10.64;100.00;98746.56;5114716;28;19952;-72
2023/10/07 07:25:30;;;;;;;;;;;;;;;10.48;100.00;98749.22;5125305;28;19957;-71
2023/10/07 07:28:00;;;;;;;;;;;;;;;10.17;100.00;98759.38;5115934;28;19991;-70
2023/10/07 07:30:29;;;;;;;;;;;;;;;10.06;100.00;98756.72;5119812;28;19924;-70
2023/10/07 07:32:58;;;;;;;;;;;;;;;10.64;100.00;98751.91;5119706;28;19924;-71
2023/10/07 07:35:38;;;;;;;;;;;;;;;10.55;100.00;98748.00;5119689;28;19920;-71
2023/10/07 07:38:11;;;;;;;;;;;;;;;10.31;100.00;98754.53;5120821;28;19971;-71
2023/10/07 07:40:41;;;;;;;;;;;;;;;10.17;100.00;98743.38;5119206;28;19924;-69
2023/10/07 07:43:08;;;;;;;;;;;;;;;10.19;100.00;98741.25;5119069;28;19924;-71
2023/10/07 07:45:36;;;;;;;;;;;;;;;10.07;100.00;98750.34;5119161;28;20443;-71
2023/10/07 07:48:06;;;;;;;;;;;;;;;10.19;100.00;98751.13;5116594;28;19930;-71
2023/10/07 07:50:35;;;;;;;;;;;;;;;10.18;100.00;98760.19;5115019;28;19992;-70
2023/10/07 07:53:06;;;;;;;;;;;;;;;10.95;100.00;98771.09;5118673;28;19934;-71
2023/10/07 07:55:33;;;;;;;;;;;;;;;11.10;100.00;98756.09;5119363;28;19942;-71
2023/10/07 07:58:00;;;;;;;;;;;;;;;11.14;100.00;98737.69;5123340;28;20234;-70
2023/10/07 08:00:26;;;;;;;;;;;;;;;11.36;100.00;98736.66;5115877;28;19984;-71
2023/10/07 08:02:55;;;;;;;;;;;;;;;11.36;100.00;98751.88;5118715;28;19924;-70
2023/10/07 08:05:22;;;;;;;;;;;;;;;11.32;100.00;98732.88;5118943;28;19970;-69
2023/10/07 08:07:51;;;;;;;;;;;;;;;11.35;100.00;98737.72;5118945;28;19923;-70
2023/10/07 08:10:20;;;;;;;;;;;;;;;11.43;100.00;98746.34;5116845;28;20003;-70
2023/10/07 08:12:47;;;;;;;;;;;;;;;11.76;100.00;98744.41;5096744;28;19924;-71
2023/10/07 08:15:21;;;;;;;;;;;;;;;11.78;100.00;98747.66;5115408;28;20673;-71
2023/10/07 08:17:50;;;;;;;;;;;;;;;12.05;100.00;98741.50;5126312;28;19924;-70
2023/10/07 08:20:22;;;;;;;;;;;;;;;12.29;100.00;98756.22;5116396;28;19924;-70
2023/10/07 08:22:52;;;;;;;;;;;;;;;12.41;100.00;98749.63;5114672;28;20301;-70
2023/10/07 08:25:25;;;;;;;;;;;;;;;12.57;100.00;98753.25;5124307;28;20222;-70
2023/10/07 08:27:55;;;;;;;;;;;;;;;12.54;100.00;98751.09;5118306;28;19931;-70
2023/10/07 08:30:37;;;;;;;;;;;;;;;12.55;100.00;98754.56;5118092;28;20507;-70
2023/10/07 08:33:06;;;;;;;;;;;;;;;12.61;100.00;98757.06;5112178;28;19924;-70
2023/10/07 08:35:34;;;;;;;;;;;;;;;12.77;100.00;98748.06;5118648;28;20002;-68
2023/10/07 08:38:03;;;;;;;;;;;;;;;12.57;100.00;98747.09;5119087;28;19931;-71
2023/10/07 08:40:40;;;;;;;;;;;;;;;12.47;100.00;98749.69;5118566;28;19924;-71
2023/10/07 08:43:10;;;;;;;;;;;;;;;12.70;100.00;98746.66;5117291;28;19924;-71
2023/10/07 08:45:39;;;;;;;;;;;;;;;12.55;100.00;98739.31;5118266;28;19934;-71
2023/10/07 08:48:14;;;;;;;;;;;;;;;12.60;100.00;98738.53;5114935;28;19924;-71
2023/10/07 08:50:49;;;;;;;;;;;;;;;12.48;100.00;98744.06;5114373;28;19930;-71
2023/10/07 08:53:17;;;;;;;;;;;;;;;12.48;100.00;98738.72;5117183;28;19946;-71
2023/10/07 08:55:46;;;;;;;;;;;;;;;12.70;100.00;98731.41;5120432;28;19956;-71
2023/10/07 08:58:14;;;;;;;;;;;;;;;12.72;100.00;98731.94;5118371;28;19924;-72
2023/10/07 09:00:45;;;;;;;;;;;;;;;12.76;100.00;98735.72;5118976;28;19928;-71
2023/10/07 09:03:15;;;;;;;;;;;;;;;12.80;100.00;98726.13;5116612;28;19937;-71
2023/10/07 09:05:41;;;;;;;;;;;;;;;12.90;100.00;98717.34;5113250;28;19924;-71
2023/10/07 09:08:11;;;;;;;;;;;;;;;13.11;100.00;98720.97;5124849;28;20170;-71
2023/10/07 09:10:39;;;;;;;;;;;;;;;13.22;100.00;98726.13;5117885;28;19966;-70
2023/10/07 09:13:12;;;;;;;;;;;;;;;13.36;100.00;98731.84;5112949;28;19927;-70
2023/10/07 09:15:42;;;;;;;;;;;;;;;13.50;100.00;98731.09;5114181;28;20518;-72
2023/10/07 09:18:10;;;;;;;;;;;;;;;13.67;100.00;98735.47;5116710;28;19978;-72
2023/10/07 09:20:45;;;;;;;;;;;;;;;13.81;100.00;98742.78;5117659;28;19942;-71
2023/10/07 09:23:19;;;;;;;;;;;;;;;13.87;100.00;98736.34;5119154;28;20598;-72
2023/10/07 09:25:50;;;;;;;;;;;;;;;13.91;100.00;98740.13;5121791;28;19924;-71
2023/10/07 09:28:18;;;;;;;;;;;;;;;14.05;100.00;98737.72;5117399;28;19928;-72
2023/10/07 09:30:48;;;;;;;;;;;;;;;14.21;100.00;98741.25;5119909;28;19943;-72
2023/10/07 09:33:17;;;;;;;;;;;;;;;14.26;100.00;98735.91;5118395;28;19955;-71
2023/10/07 09:35:45;;;;;;;;;;;;;;;14.40;100.00;98739.72;5118251;28;20003;-71
2023/10/07 09:38:22;;;;;;;;;;;;;;;14.58;100.00;98733.81;5115807;28;19955;-73
2023/10/07 09:43:37;;;;;;;;;;;;;;;14.82;100.00;98728.72;5103958;28;20114;-71
2023/10/07 09:46:03;;;;;;;;;;;;;;;14.87;100.00;98729.50;5121111;28;19934;-71
2023/10/07 09:48:31;;;;;;;;;;;;;;;14.93;100.00;98723.03;5122247;28;19960;-71
2023/10/07 09:50:58;;;;;;;;;;;;;;;14.99;100.00;98719.28;5107757;28;19928;-72
2023/10/07 09:53:30;;;;;;;;;;;;;;;14.97;100.00;98723.31;5104245;28;20185;-70
2023/10/07 09:56:21;;;;;;;;;;;;;;;15.05;100.00;98712.00;5121171;28;19924;-72
2023/10/07 09:58:59;;;;;;;;;;;;;;;15.11;100.00;98711.72;5121889;28;19924;-71
2023/10/07 10:01:36;;;;;;;;;;;;;;;15.16;100.00;98710.09;5121772;28;19964;-71
2023/10/07 10:04:12;;;;;;;;;;;;;;;15.23;100.00;98710.59;5121677;28;19954;-70
2023/10/07 10:07:00;;;;;;;;;;;;;;;15.26;100.00;98696.59;5121721;28;20671;-71
2023/10/07 10:09:27;;;;;;;;;;;;;;;15.33;100.00;98699.81;5121997;28;19959;-72
2023/10/07 10:14:56;;;;;;;;;;;;;;;15.14;100.00;98692.34;5120724;28;19928;-72
2023/10/07 10:17:30;;;;;;;;;;;;;;;15.27;100.00;98692.84;5103276;28;19931;-71
2023/10/07 10:20:09;;;;;;;;;;;;;;;15.42;100.00;98682.00;5121260;28;19928;-71
2023/10/07 10:22:37;;;;;;;;;;;;;;;15.59;100.00;98682.53;5121014;28;19931;-71
2023/10/07 10:25:14;;;;;;;;;;;;;;;15.73;100.00;98686.22;5126528;28;19979;-71
2023/10/07 10:27:44;;;;;;;;;;;;;;;15.73;100.00;98683.53;5115876;28;19980;-72
2023/10/07 10:30:21;;;;;;;;;;;;;;;15.87;100.00;98689.94;5127358;28;20595;-71
2023/10/07 10:32:54;;;;;;;;;;;;;;;15.99;100.00;98693.09;5120592;28;19923;-71
2023/10/07 10:35:23;;;;;;;;;;;;;;;16.03;100.00;98687.94;5119346;28;19928;-72
2023/10/07 10:37:54;;;;;;;;;;;;;;;16.06;100.00;98682.78;5117709;28;19951;-72
2023/10/07 10:40:21;;;;;;;;;;;;;;;16.10;100.00;98683.84;5119462;28;19950;-71
2023/10/07 10:42:49;;;;;;;;;;;;;;;15.84;100.00;98678.91;5121120;28;19924;-71
2023/10/07 10:45:19;;;;;;;;;;;;;;;15.87;100.00;98681.03;5120500;28;19935;-71
2023/10/07 10:47:50;;;;;;;;;;;;;;;15.61;100.00;98677.66;5120281;28;19934;-72
2023/10/07 10:50:17;;;;;;;;;;;;;;;15.64;100.00;98677.09;5119761;28;19926;-71
2023/10/07 10:52:43;;;;;;;;;;;;;;;15.99;100.00;98687.69;5114820;28;19947;-71
2023/10/07 10:55:11;;;;;;;;;;;;;;;16.28;100.00;98686.97;5127049;28;20311;-71
2023/10/07 10:57:40;;;;;;;;;;;;;;;16.42;100.00;98685.22;5120461;28;19927;-72
2023/10/07 11:00:19;;;;;;;;;;;;;;;16.38;100.00;98690.38;5116739;28;19989;-72
2023/10/07 11:02:46;;;;;;;;;;;;;;;16.39;100.00;98691.19;5116117;28;20002;-72
2023/10/07 11:05:13;;;;;;;;;;;;;;;16.13;100.00;98696.75;5118054;28;19987;-72
2023/10/07 11:07:40;;;;;;;;;;;;;;;16.05;100.00;98686.56;5120051;28;19928;-71
2023/10/07 11:10:07;;;;;;;;;;;;;;;16.16;100.00;98681.91;5120013;28;19928;-71
2023/10/07 11:12:33;;;;;;;;;;;;;;;16.25;100.00;98691.00;5121044;28;19947;-72
2023/10/07 11:15:06;;;;;;;;;;;;;;;16.50;100.00;98687.31;5119220;28;19924;-72
2023/10/07 11:17:38;;;;;;;;;;;;;;;16.67;100.00;98688.56;5119842;28;19924;-71
2023/10/07 11:20:08;;;;;;;;;;;;;;;16.39;100.00;98685.78;5119762;28;19928;-73
2023/10/07 11:22:37;;;;;;;;;;;;;;;16.01;100.00;98685.53;5119795;28;20701;-71
2023/10/07 11:25:06;;;;;;;;;;;;;;;16.13;100.00;98677.88;5124599;28;19924;-71
2023/10/07 11:27:33;;;;;;;;;;;;;;;16.12;100.00;98678.97;5116019;28;19931;-72
2023/10/07 11:30:01;;;;;;;;;;;;;;;16.10;100.00;98667.69;5119679;28;19954;-73
2023/10/07 11:32:33;;;;;;;;;;;;;;;16.12;100.00;98659.31;5127952;28;19931;-72
2023/10/07 11:35:01;;;;;;;;;;;;;;;15.93;100.00;98656.50;5114053;28;19984;-72
2023/10/07 11:37:29;;;;;;;;;;;;;;;15.98;100.00;98656.44;5116642;28;19931;-72
2023/10/07 11:39:55;;;;;;;;;;;;;;;16.05;100.00;98656.94;5120408;28;19928;-72
2023/10/07 11:42:22;;;;;;;;;;;;;;;16.28;100.00;98650.00;5120691;28;19920;-72
2023/10/07 11:44:52;;;;;;;;;;;;;;;16.23;100.00;98644.69;5119661;28;19924;-72
2023/10/07 11:47:19;;;;;;;;;;;;;;;16.14;100.00;98659.84;5117998;28;19945;-71
2023/10/07 11:49:47;;;;;;;;;;;;;;;16.01;100.00;98653.19;5115586;28;19928;-72
2023/10/07 11:52:19;;;;;;;;;;;;;;;16.11;100.00;98649.63;5117018;28;19979;-72
2023/10/07 11:54:45;;;;;;;;;;;;;;;16.20;100.00;98651.44;5127426;28;19931;-72
2023/10/07 11:57:13;;;;;;;;;;;;;;;16.49;100.00;98659.56;5116555;28;19928;-72
2023/10/07 11:59:42;;;;;;;;;;;;;;;16.47;100.00;98650.13;5115486;28;19934;-71
2023/10/07 12:02:10;;;;;;;;;;;;;;;16.85;100.00;98660.06;5117675;28;19924;-72
2023/10/07 12:04:39;;;;;;;;;;;;;;;16.77;100.00;98652.59;5118522;28;19959;-71
2023/10/07 12:07:06;;;;;;;;;;;;;;;16.99;100.00;98639.41;5119312;28;19987;-71
2023/10/07 12:09:34;;;;;;;;;;;;;;;16.89;100.00;98628.72;5119164;28;19923;-71
2023/10/07 12:12:02;;;;;;;;;;;;;;;16.88;100.00;98629.81;5115887;28;19923;-71
2023/10/07 12:14:28;;;;;;;;;;;;;;;16.66;100.00;98626.81;5122837;28;19924;-71
2023/10/07 12:16:55;;;;;;;;;;;;;;;16.87;100.00;98633.59;5119128;28;19931;-72
2023/10/07 12:19:21;;;;;;;;;;;;;;;16.64;100.00;98631.69;5119405;28;19920;-72
2023/10/07 12:21:49;;;;;;;;;;;;;;;16.58;100.00;98630.13;5120557;28;19935;-72
2023/10/07 12:24:16;;;;;;;;;;;;;;;16.61;100.00;98626.84;5130191;28;19924;-72
2023/10/07 12:26:47;;;;;;;;;;;;;;;16.97;100.00;98630.78;5117057;28;19920;-72
2023/10/07 12:29:13;;;;;;;;;;;;;;;16.73;100.00;98629.97;5118838;28;19950;-72
2023/10/07 12:31:40;;;;;;;;;;;;;;;16.57;100.00;98633.91;5119549;28;19930;-71
2023/10/07 12:34:09;;;;;;;;;;;;;;;16.77;100.00;98620.22;5100352;28;19936;-72
2023/10/07 12:36:38;;;;;;;;;;;;;;;16.99;100.00;98615.13;5118586;28;19924;-72
2023/10/07 12:39:10;;;;;;;;;;;;;;;17.15;100.00;98613.84;5118345;28;19991;-72
2023/10/07 12:41:36;;;;;;;;;;;;;;;17.12;100.00;98619.81;5118347;28;19927;-72
2023/10/07 12:44:08;;;;;;;;;;;;;;;17.17;100.00;98614.38;5115698;28;19924;-72
2023/10/07 12:46:35;;;;;;;;;;;;;;;16.88;100.00;98624.41;5113755;28;20073;-73
2023/10/07 12:49:01;;;;;;;;;;;;;;;16.63;100.00;98613.88;5099558;28;19925;-72
2023/10/07 12:51:28;;;;;;;;;;;;;;;16.57;100.00;98598.84;5126155;28;19927;-73
2023/10/07 12:53:59;;;;;;;;;;;;;;;16.56;100.00;98594.53;5122104;28;19938;-71
2023/10/07 12:56:25;;;;;;;;;;;;;;;16.64;100.00;98618.19;5115467;28;19925;-72
2023/10/07 12:58:53;;;;;;;;;;;;;;;16.75;100.00;98611.59;5118255;28;19987;-72
2023/10/07 13:01:21;;;;;;;;;;;;;;;16.96;100.00;98606.81;5118364;28;19924;-72
2023/10/07 13:03:47;;;;;;;;;;;;;;;17.16;100.00;98620.06;5117932;28;19934;-72
2023/10/07 13:06:15;;;;;;;;;;;;;;;17.01;100.00;98618.34;5116986;28;19990;-72